Time;durP1;ratioP1;P1;durP2;ratioP2;P2;SDS_P1;SDS_P2;PMS_P1;PMS_P2;Temp;Humidity;BMP_temperature;BMP_pressure;BME280_temperature;BME280_humidity;BME280_pressure;Samples;Min_cycle;Max_cycle;Signal;HPM_P1;HPM_P2
2022/12/30 00:00:36;;;;;;;23.48;8.50;;;27.20;90.90;;;;;;5137151;28;20042;-56
2022/12/30 00:03:03;;;;;;;17.67;8.90;;;27.10;91.20;;;;;;5125189;28;20077;-60
2022/12/30 00:05:29;;;;;;;16.75;7.95;;;27.00;91.40;;;;;;5105084;28;20079;-58
2022/12/30 00:07:57;;;;;;;20.40;10.13;;;26.90;91.60;;;;;;5103953;28;20324;-65
2022/12/30 00:10:24;;;;;;;29.73;17.60;;;26.90;91.80;;;;;;5124428;28;20027;-58
2022/12/30 00:35:17;;;;;;;20.45;10.15;;;26.30;91.80;;;;;;5107752;28;20236;-59
2022/12/30 00:37:44;;;;;;;18.10;10.45;;;26.20;91.70;;;;;;5107509;28;20023;-57
2022/12/30 00:40:11;;;;;;;21.30;11.25;;;26.20;91.50;;;;;;5107864;28;20048;-62
2022/12/30 00:43:19;;;;;;;18.85;10.40;;;26.20;91.50;;;;;;5107540;28;20193;-58
2022/12/30 00:45:27;;;;;;;16.58;9.15;;;26.20;91.40;;;;;;5091755;28;20044;-56
2022/12/30 00:47:54;;;;;;;15.88;8.95;;;26.10;91.20;;;;;;5122547;27;20035;-59
2022/12/30 00:58:35;;;;;;;23.63;14.02;;;26.10;90.70;;;;;;5125300;27;20339;-59
2022/12/30 01:01:04;;;;;;;24.75;12.40;;;26.10;90.80;;;;;;5116252;28;20051;-54
2022/12/30 01:03:30;;;;;;;20.85;11.70;;;26.00;90.50;;;;;;5107258;28;20024;-56
2022/12/30 01:05:57;;;;;;;15.38;9.75;;;26.00;90.50;;;;;;5113430;28;20055;-55
2022/12/30 01:08:24;;;;;;;12.98;8.50;;;26.00;90.40;;;;;;5112925;28;20032;-58
2022/12/30 01:10:50;;;;;;;21.98;10.88;;;26.00;90.30;;;;;;5138027;27;20265;-56
2022/12/30 01:13:17;;;;;;;21.92;10.90;;;26.00;90.20;;;;;;5148029;27;20035;-57
2022/12/30 01:15:43;;;;;;;17.50;10.68;;;26.00;90.10;;;;;;5138293;27;20073;-55
2022/12/30 01:18:10;;;;;;;21.35;10.20;;;26.00;89.90;;;;;;5116680;28;20079;-54
2022/12/30 01:20:37;;;;;;;16.00;9.18;;;26.10;90.00;;;;;;5089023;28;20103;-56
2022/12/30 01:23:03;;;;;;;15.40;8.15;;;26.20;89.70;;;;;;5106959;28;20028;-58
2022/12/30 01:25:36;;;;;;;13.80;8.70;;;26.40;89.20;;;;;;5088754;28;20357;-54
2022/12/30 01:28:02;;;;;;;12.57;8.20;;;26.50;89.20;;;;;;5118257;27;20069;-53
2022/12/30 01:30:29;;;;;;;16.13;8.93;;;26.60;88.70;;;;;;5110110;28;20051;-53
2022/12/30 01:32:55;;;;;;;13.43;8.25;;;26.70;88.30;;;;;;5106834;28;20016;-54
2022/12/30 01:35:22;;;;;;;12.43;7.60;;;26.70;88.00;;;;;;5106827;28;20296;-53
2022/12/30 01:37:49;;;;;;;14.77;7.90;;;26.80;87.70;;;;;;5127426;27;20050;-55
2022/12/30 01:40:15;;;;;;;14.48;7.63;;;26.80;87.30;;;;;;5126554;28;20092;-56
2022/12/30 01:42:42;;;;;;;16.27;7.90;;;26.90;87.10;;;;;;5126995;28;20030;-56
2022/12/30 01:45:27;;;;;;;16.98;7.90;;;26.90;87.00;;;;;;5125825;28;20232;-56
2022/12/30 01:48:12;;;;;;;10.15;7.07;;;26.90;86.30;;;;;;5127211;28;20058;-54
2022/12/30 01:51:11;;;;;;;12.35;6.68;;;26.90;86.60;;;;;;5124805;28;20092;-52
2022/12/30 01:53:44;;;;;;;13.23;6.30;;;26.90;86.00;;;;;;5105863;28;20228;-54
2022/12/30 01:56:21;;;;;;;11.80;6.30;;;27.00;85.80;;;;;;5125111;28;20028;-52
2022/12/30 01:59:15;;;;;;;17.52;6.28;;;27.00;85.60;;;;;;5124761;28;20050;-56
2022/12/30 02:01:43;;;;;;;15.00;7.07;;;27.00;85.40;;;;;;5125373;28;20020;-57
2022/12/30 02:04:16;;;;;;;15.98;7.68;;;27.00;85.40;;;;;;5124891;28;20058;-56
2022/12/30 02:07:06;;;;;;;18.38;8.73;;;27.00;85.40;;;;;;5125685;28;20019;-58
2022/12/30 02:09:34;;;;;;;20.73;9.05;;;27.00;85.20;;;;;;5125142;28;20072;-55
2022/12/30 02:12:02;;;;;;;16.15;8.40;;;27.00;85.10;;;;;;5125871;28;20031;-56
2022/12/30 02:14:30;;;;;;;14.75;8.35;;;27.00;85.10;;;;;;5126876;28;20064;-55
2022/12/30 02:17:08;;;;;;;16.88;8.23;;;27.00;85.00;;;;;;5127127;28;20030;-59
2022/12/30 02:20:11;;;;;;;16.15;8.82;;;27.00;84.80;;;;;;5126437;28;20015;-56
2022/12/30 02:22:44;;;;;;;16.35;9.27;;;27.00;84.80;;;;;;5126206;28;20028;-57
2022/12/30 02:25:46;;;;;;;16.50;8.73;;;27.00;84.70;;;;;;5125360;28;20040;-58
2022/12/30 02:28:43;;;;;;;15.48;8.20;;;27.00;84.60;;;;;;5126229;28;20018;-57
2022/12/30 02:31:32;;;;;;;14.63;7.35;;;27.00;84.90;;;;;;5126447;28;20044;-58
2022/12/30 02:34:20;;;;;;;16.90;7.40;;;27.00;84.40;;;;;;5074803;28;20363;-58
2022/12/30 02:37:06;;;;;;;12.63;6.65;;;27.00;84.30;;;;;;5107765;28;20032;-59
2022/12/30 02:39:57;;;;;;;13.38;6.18;;;27.00;84.20;;;;;;5126015;28;20094;-55
2022/12/30 02:45:45;;;;;;;11.48;6.03;;;27.00;84.20;;;;;;5125874;28;20038;-57
2022/12/30 02:48:17;;;;;;;9.00;5.50;;;27.00;84.10;;;;;;5125833;28;20099;-52
2022/12/30 02:53:34;;;;;;;10.93;5.82;;;27.00;84.00;;;;;;5124862;28;20079;-56
2022/12/30 02:56:00;;;;;;;10.02;5.57;;;27.00;83.90;;;;;;5126078;28;20086;-57
2022/12/30 02:58:31;;;;;;;13.65;5.60;;;26.90;84.40;;;;;;5125676;28;20077;-58
2022/12/30 03:04:07;;;;;;;13.52;6.32;;;27.00;84.10;;;;;;5125607;28;20030;-58
2022/12/30 03:07:05;;;;;;;9.07;6.20;;;27.00;84.00;;;;;;5126419;28;20023;-58
2022/12/30 03:11:12;;;;;;;12.98;5.47;;;27.00;84.00;;;;;;5125423;28;20094;-58
2022/12/30 03:12:40;;;;;;;9.68;6.13;;;27.00;83.90;;;;;;5124586;28;20205;-57
2022/12/30 03:15:15;;;;;;;11.93;6.68;;;26.90;83.90;;;;;;5125371;28;20347;-58
2022/12/30 03:17:46;;;;;;;12.65;6.55;;;26.90;83.90;;;;;;5125009;28;20052;-56
2022/12/30 03:20:17;;;;;;;11.00;6.72;;;26.90;84.00;;;;;;5125087;28;20026;-56
2022/12/30 03:28:20;;;;;;;11.85;5.93;;;26.90;84.00;;;;;;5125043;28;20014;-59
2022/12/30 03:31:07;;;;;;;11.35;6.53;;;26.90;84.00;;;;;;5125472;28;20043;-58
2022/12/30 03:33:35;;;;;;;12.77;6.97;;;26.90;84.00;;;;;;5124752;28;20011;-59
2022/12/30 03:36:24;;;;;;;13.20;6.53;;;26.90;83.90;;;;;;5125258;28;20055;-57
2022/12/30 03:39:28;;;;;;;12.82;6.93;;;26.90;83.90;;;;;;5124913;28;20304;-55
2022/12/30 03:41:55;;;;;;;11.65;7.03;;;26.90;84.00;;;;;;5125169;28;20036;-53
2022/12/30 03:44:22;;;;;;;12.85;7.18;;;26.90;84.00;;;;;;5124787;28;20027;-57
2022/12/30 03:46:49;;;;;;;10.82;7.43;;;26.90;84.10;;;;;;5125396;28;20039;-58
2022/12/30 03:49:17;;;;;;;25.02;8.35;;;26.90;84.10;;;;;;5124779;28;20039;-58
2022/12/30 03:51:44;;;;;;;16.48;7.85;;;26.90;84.10;;;;;;5124974;28;20408;-57
2022/12/30 03:54:10;;;;;;;16.52;7.03;;;26.90;84.10;;;;;;5124825;28;20063;-58
2022/12/30 03:56:37;;;;;;;13.07;6.95;;;26.90;84.50;;;;;;5125452;28;20027;-58
2022/12/30 03:59:03;;;;;;;14.60;7.10;;;26.90;84.10;;;;;;5124497;28;20411;-57
2022/12/30 04:01:30;;;;;;;14.07;5.95;;;26.80;83.90;;;;;;5125276;28;20027;-56
2022/12/30 04:03:58;;;;;;;15.20;6.30;;;26.90;84.10;;;;;;5129352;28;20026;-58
2022/12/30 04:06:25;;;;;;;12.25;5.47;;;26.80;84.10;;;;;;5132095;28;20039;-61
2022/12/30 04:08:51;;;;;;;11.02;5.82;;;26.80;84.10;;;;;;5131305;28;20023;-59
2022/12/30 04:11:18;;;;;;;11.75;6.15;;;26.80;84.20;;;;;;5131928;28;20031;-57
2022/12/30 04:13:44;;;;;;;11.15;5.53;;;26.80;84.20;;;;;;5131556;28;20071;-56
2022/12/30 04:16:11;;;;;;;10.90;5.32;;;26.80;84.30;;;;;;5131653;28;20023;-59
2022/12/30 04:18:38;;;;;;;11.27;5.10;;;26.80;84.40;;;;;;5131203;28;20032;-56
2022/12/30 04:21:04;;;;;;;12.10;5.85;;;26.70;84.50;;;;;;5113141;28;20043;-56
2022/12/30 04:23:31;;;;;;;11.05;5.63;;;26.70;84.50;;;;;;5131189;28;20268;-55
2022/12/30 04:25:58;;;;;;;11.48;5.93;;;26.70;84.60;;;;;;5131452;28;20090;-55
2022/12/30 04:28:25;;;;;;;14.82;5.68;;;26.70;84.70;;;;;;5131045;28;20311;-59
2022/12/30 04:30:51;;;;;;;10.90;5.57;;;26.70;84.70;;;;;;5131219;28;20416;-62
2022/12/30 04:33:18;;;;;;;10.07;5.80;;;26.60;84.70;;;;;;5130986;28;20043;-63
2022/12/30 04:35:44;;;;;;;12.85;5.65;;;26.60;84.70;;;;;;5112537;28;20193;-60
2022/12/30 04:38:11;;;;;;;9.43;5.15;;;26.60;84.80;;;;;;5112734;28;20346;-58
2022/12/30 04:40:38;;;;;;;10.27;5.85;;;26.60;84.90;;;;;;5131133;28;20212;-55
2022/12/30 04:43:05;;;;;;;8.35;5.20;;;26.60;85.00;;;;;;5112464;28;20020;-54
2022/12/30 04:45:31;;;;;;;14.00;6.07;;;26.60;84.90;;;;;;5131090;28;20035;-56
2022/12/30 04:47:58;;;;;;;15.25;5.97;;;26.60;84.90;;;;;;5130971;28;20095;-59
2022/12/30 04:50:25;;;;;;;10.27;5.60;;;26.60;85.00;;;;;;5130662;28;20208;-57
2022/12/30 04:52:51;;;;;;;10.32;5.53;;;26.60;85.00;;;;;;5130963;28;20072;-56
2022/12/30 04:55:18;;;;;;;7.68;5.45;;;26.60;85.00;;;;;;5131173;28;20035;-56
2022/12/30 04:57:44;;;;;;;9.70;5.60;;;26.60;84.80;;;;;;5130627;28;20012;-56
2022/12/30 05:00:11;;;;;;;8.68;5.05;;;26.60;84.80;;;;;;5130867;28;20038;-54
2022/12/30 05:02:38;;;;;;;8.88;5.25;;;26.60;84.60;;;;;;5130825;28;20090;-56
2022/12/30 05:05:06;;;;;;;8.80;5.40;;;26.60;84.70;;;;;;5130678;28;20015;-54
2022/12/30 05:07:32;;;;;;;13.38;5.20;;;26.60;84.70;;;;;;5130822;28;20096;-55
2022/12/30 05:09:59;;;;;;;12.48;5.43;;;26.60;84.70;;;;;;5130960;28;20027;-56
2022/12/30 05:12:26;;;;;;;11.00;5.03;;;26.60;84.80;;;;;;5128777;27;20083;-56
2022/12/30 05:14:52;;;;;;;9.13;4.88;;;26.70;84.90;;;;;;5125201;28;20031;-55
2022/12/30 05:17:19;;;;;;;9.10;5.45;;;26.70;84.80;;;;;;5116980;28;20040;-54
2022/12/30 05:19:45;;;;;;;10.18;5.25;;;26.70;84.60;;;;;;5112171;28;20032;-55
2022/12/30 05:22:12;;;;;;;9.48;4.72;;;26.70;84.50;;;;;;5105383;28;20020;-54
2022/12/30 05:27:23;;;;;;;10.05;5.20;;;26.80;84.10;;;;;;5122766;28;20051;-55
2022/12/30 05:29:50;;;;;;;9.57;5.25;;;26.80;84.00;;;;;;5125206;28;20137;-54
2022/12/30 05:32:16;;;;;;;8.63;5.35;;;26.80;84.20;;;;;;5138116;27;20331;-54
2022/12/30 05:34:43;;;;;;;9.15;5.38;;;26.90;84.20;;;;;;5146112;27;20023;-58
2022/12/30 05:37:09;;;;;;;9.80;5.15;;;26.80;84.10;;;;;;5147702;27;20311;-57
2022/12/30 05:39:36;;;;;;;9.30;4.88;;;26.80;83.80;;;;;;5147617;27;20034;-55
2022/12/30 05:42:03;;;;;;;9.88;4.75;;;26.90;84.00;;;;;;5147373;27;20023;-55
2022/12/30 05:44:30;;;;;;;7.72;5.05;;;26.80;83.90;;;;;;5147538;27;20023;-55
2022/12/30 05:46:58;;;;;;;12.10;5.53;;;26.90;84.00;;;;;;5147926;27;20019;-56
2022/12/30 05:49:24;;;;;;;8.05;5.13;;;26.80;83.70;;;;;;5147263;27;20102;-56
2022/12/30 05:51:51;;;;;;;9.77;5.00;;;26.90;83.70;;;;;;5147373;27;20089;-54
2022/12/30 05:54:17;;;;;;;8.10;5.07;;;26.80;83.70;;;;;;5147428;27;20023;-54
2022/12/30 05:56:44;;;;;;;8.15;5.05;;;26.80;83.60;;;;;;5147086;27;20031;-54
2022/12/30 05:59:11;;;;;;;13.35;5.13;;;26.90;83.70;;;;;;5147295;27;20015;-53
2022/12/30 06:01:38;;;;;;;10.10;4.85;;;26.90;83.80;;;;;;5147633;27;20304;-55
2022/12/30 06:04:04;;;;;;;8.00;4.60;;;26.90;83.60;;;;;;5130776;27;20019;-56
2022/12/30 06:06:31;;;;;;;9.07;5.03;;;26.90;83.50;;;;;;5126844;28;20303;-54
2022/12/30 06:08:57;;;;;;;14.35;5.47;;;26.90;83.60;;;;;;5126465;28;20328;-54
2022/12/30 06:11:24;;;;;;;9.48;5.00;;;26.90;83.50;;;;;;5126545;28;20051;-55
2022/12/30 06:13:50;;;;;;;6.82;4.63;;;26.90;83.60;;;;;;5126777;28;20064;-55
2022/12/30 06:16:17;;;;;;;10.27;5.50;;;26.90;83.70;;;;;;5126566;28;20035;-55
2022/12/30 06:18:44;;;;;;;9.73;5.10;;;26.90;84.00;;;;;;5126272;28;20026;-55
2022/12/30 06:21:10;;;;;;;9.68;4.78;;;26.80;83.70;;;;;;5126474;28;20039;-55
2022/12/30 06:23:37;;;;;;;7.68;4.70;;;26.90;83.70;;;;;;5126348;28;20320;-54
2022/12/30 06:26:03;;;;;;;8.68;4.55;;;26.80;83.70;;;;;;5126459;28;20028;-53
2022/12/30 06:28:30;;;;;;;7.68;4.68;;;26.90;83.70;;;;;;5126175;28;20262;-57
2022/12/30 06:30:57;;;;;;;8.40;5.10;;;26.90;83.70;;;;;;5126182;28;20039;-59
2022/12/30 06:33:23;;;;;;;8.60;4.80;;;26.90;84.40;;;;;;5126395;28;20047;-55
2022/12/30 06:35:50;;;;;;;8.43;4.88;;;26.80;83.60;;;;;;5126472;28;20022;-56
2022/12/30 06:38:17;;;;;;;8.40;5.00;;;26.90;83.90;;;;;;5125821;28;20267;-54
2022/12/30 06:40:44;;;;;;;7.00;4.70;;;26.90;84.00;;;;;;5126054;28;20023;-55
2022/12/30 06:43:11;;;;;;;8.02;4.32;;;26.90;84.00;;;;;;5126021;28;20212;-55
2022/12/30 06:45:38;;;;;;;9.27;5.00;;;26.90;84.00;;;;;;5126859;28;20049;-57
2022/12/30 06:48:05;;;;;;;7.38;4.57;;;26.80;83.70;;;;;;5125924;28;20020;-55
2022/12/30 06:50:31;;;;;;;7.93;4.50;;;26.90;83.80;;;;;;5125469;28;20028;-56
2022/12/30 06:52:58;;;;;;;8.13;4.15;;;26.90;83.90;;;;;;5125755;28;20312;-55
2022/12/30 06:55:25;;;;;;;9.68;4.85;;;26.90;83.60;;;;;;5125696;28;20099;-56
2022/12/30 06:57:51;;;;;;;8.93;4.55;;;26.90;83.90;;;;;;5125363;28;20023;-56
2022/12/30 07:00:18;;;;;;;8.73;4.75;;;26.90;83.80;;;;;;5125983;28;20041;-57
2022/12/30 07:02:45;;;;;;;9.75;4.60;;;26.90;83.70;;;;;;5125483;28;20031;-55
2022/12/30 07:05:11;;;;;;;6.30;4.60;;;26.90;83.70;;;;;;5125186;28;20204;-56
2022/12/30 07:07:38;;;;;;;7.40;4.95;;;26.90;83.80;;;;;;5127926;27;20027;-56
2022/12/30 07:10:05;;;;;;;8.70;4.75;;;26.90;83.90;;;;;;5146054;27;20042;-55
2022/12/30 07:12:31;;;;;;;8.68;4.80;;;26.90;83.80;;;;;;5146054;27;20025;-58
2022/12/30 07:14:58;;;;;;;7.85;4.78;;;26.90;83.90;;;;;;5145791;27;20039;-56
2022/12/30 07:17:24;;;;;;;8.45;4.43;;;26.90;83.70;;;;;;5145873;27;20110;-54
2022/12/30 07:19:51;;;;;;;7.68;4.53;;;26.90;83.70;;;;;;5145600;27;20027;-56
2022/12/30 07:22:17;;;;;;;8.13;4.70;;;26.90;83.80;;;;;;5145727;27;20264;-53
2022/12/30 07:24:44;;;;;;;7.50;4.78;;;26.90;83.50;;;;;;5145585;27;20303;-53
2022/12/30 07:27:14;;;;;;;7.70;4.97;;;26.90;83.50;;;;;;5145475;27;20231;-53
2022/12/30 07:29:40;;;;;;;6.65;4.45;;;26.90;83.60;;;;;;5146115;27;20042;-56
2022/12/30 07:32:08;;;;;;;8.20;4.50;;;26.90;83.60;;;;;;5145620;27;20034;-53
2022/12/30 07:34:36;;;;;;;10.20;4.75;;;26.90;83.70;;;;;;5145354;27;20033;-58
2022/12/30 07:37:04;;;;;;;6.40;4.32;;;26.80;83.60;;;;;;5145370;27;20034;-55
2022/12/30 07:39:31;;;;;;;6.32;4.50;;;26.80;83.70;;;;;;5145079;27;20033;-56
2022/12/30 07:41:58;;;;;;;8.50;4.68;;;26.90;84.00;;;;;;5145688;27;20023;-57
2022/12/30 07:44:25;;;;;;;9.15;4.50;;;26.90;83.80;;;;;;5145645;27;20202;-55
2022/12/30 07:46:51;;;;;;;6.88;4.38;;;26.80;83.60;;;;;;5145862;27;20106;-56
2022/12/30 07:49:18;;;;;;;7.80;4.25;;;26.90;83.80;;;;;;5145384;27;20025;-55
2022/12/30 07:51:45;;;;;;;8.20;4.80;;;26.90;83.80;;;;;;5145194;27;20074;-58
2022/12/30 07:54:11;;;;;;;7.80;4.35;;;26.80;84.00;;;;;;5145837;27;20075;-56
2022/12/30 07:56:38;;;;;;;9.60;4.93;;;26.90;83.80;;;;;;5145281;27;20042;-55
2022/12/30 07:59:04;;;;;;;6.88;4.55;;;26.90;84.20;;;;;;5145342;27;20264;-60
2022/12/30 08:01:31;;;;;;;8.50;4.65;;;26.90;83.80;;;;;;5145740;28;20019;-55
2022/12/30 08:03:58;;;;;;;6.85;4.25;;;26.90;84.00;;;;;;5144868;28;20309;-55
2022/12/30 08:06:24;;;;;;;7.88;5.05;;;26.90;84.00;;;;;;5145891;28;20098;-57
2022/12/30 08:08:51;;;;;;;8.52;4.95;;;26.90;84.00;;;;;;5145478;28;20031;-56
2022/12/30 08:11:17;;;;;;;8.73;4.45;;;26.90;84.00;;;;;;5145709;28;20031;-56
2022/12/30 08:13:44;;;;;;;7.55;4.80;;;26.90;84.00;;;;;;5145332;28;20195;-56
2022/12/30 08:16:13;;;;;;;6.68;4.30;;;26.80;84.10;;;;;;5145194;28;20046;-56
2022/12/30 08:18:40;;;;;;;9.55;4.90;;;26.80;84.20;;;;;;5144996;28;20011;-56
2022/12/30 08:21:10;;;;;;;7.78;4.90;;;26.90;84.40;;;;;;5145271;28;20038;-57
2022/12/30 08:23:36;;;;;;;8.75;5.10;;;26.90;84.50;;;;;;5145395;28;20086;-55
2022/12/30 08:26:08;;;;;;;9.20;4.90;;;26.90;84.60;;;;;;5145233;28;20019;-54
2022/12/30 08:28:36;;;;;;;7.80;4.47;;;26.90;84.70;;;;;;5144967;28;20027;-56
2022/12/30 08:31:11;;;;;;;7.28;4.45;;;26.90;84.70;;;;;;5145592;28;20023;-56
2022/12/30 08:33:37;;;;;;;9.95;4.93;;;26.90;84.80;;;;;;5145125;28;20083;-56
2022/12/30 08:36:06;;;;;;;8.65;4.90;;;26.80;84.80;;;;;;5144867;28;20319;-55
2022/12/30 08:38:37;;;;;;;8.90;4.55;;;26.80;85.40;;;;;;5144828;28;20046;-55
2022/12/30 08:41:09;;;;;;;8.45;4.63;;;26.80;85.00;;;;;;5145070;28;20088;-55
2022/12/30 08:43:35;;;;;;;;;;;26.80;85.20;;;;;;5145987;28;20316;-55
2022/12/30 08:46:02;;;;;;;7.22;4.40;;;26.80;85.30;;;;;;5144949;28;19911;-54
2022/12/30 08:48:29;;;;;;;6.75;4.20;;;26.80;85.50;;;;;;5144584;28;20246;-57
2022/12/30 08:50:57;;;;;;;9.27;4.75;;;26.80;85.60;;;;;;5146800;27;20336;-55
2022/12/30 08:53:24;;;;;;;8.73;4.50;;;26.80;85.50;;;;;;5148621;27;20031;-56
2022/12/30 08:56:02;;;;;;;8.18;4.68;;;26.80;85.70;;;;;;5148739;27;20099;-56
2022/12/30 08:58:30;;;;;;;10.13;4.95;;;26.80;85.90;;;;;;5148457;27;20052;-56
2022/12/30 09:00:56;;;;;;;9.48;4.78;;;26.80;85.80;;;;;;5148297;27;20027;-61
2022/12/30 09:03:23;;;;;;;8.25;4.80;;;26.80;85.90;;;;;;5148916;27;20015;-56
2022/12/30 09:05:52;;;;;;;7.57;4.80;;;26.80;86.00;;;;;;5148608;27;20023;-55
2022/12/30 09:08:19;;;;;;;10.18;4.55;;;26.80;86.00;;;;;;5148063;27;20015;-55
2022/12/30 09:10:56;;;;;;;7.50;5.00;;;26.80;86.00;;;;;;5148363;27;20023;-55
2022/12/30 09:13:24;;;;;;;10.32;5.20;;;26.80;86.00;;;;;;5148097;27;20090;-57
2022/12/30 09:15:51;;;;;;;10.77;4.97;;;26.80;86.00;;;;;;5148163;27;20094;-56
2022/12/30 09:18:18;;;;;;;8.50;4.82;;;26.80;85.90;;;;;;5148188;27;20023;-56
2022/12/30 09:20:44;;;;;;;5.97;4.68;;;26.80;86.00;;;;;;5148618;27;20019;-56
2022/12/30 09:23:11;;;;;;;9.48;4.70;;;26.80;85.80;;;;;;5147923;27;20019;-55
2022/12/30 09:25:39;;;;;;;10.05;4.68;;;26.80;85.70;;;;;;5148981;27;20027;-57
2022/12/30 09:28:05;;;;;;;6.95;4.32;;;26.80;85.60;;;;;;5147933;27;20079;-56
2022/12/30 09:30:32;;;;;;;11.30;4.28;;;26.80;85.50;;;;;;5147913;27;20095;-55
2022/12/30 09:32:58;;;;;;;12.73;4.85;;;26.80;85.60;;;;;;5148064;27;20019;-55
2022/12/30 09:35:25;;;;;;;7.40;4.40;;;26.80;85.40;;;;;;5148256;27;20215;-56
2022/12/30 09:37:51;;;;;;;9.27;4.88;;;26.80;85.50;;;;;;5147748;27;20027;-55
2022/12/30 09:40:26;;;;;;;13.77;4.68;;;26.80;85.40;;;;;;5148366;27;20035;-56
2022/12/30 09:46:11;;;;;;;6.53;4.28;;;26.80;85.40;;;;;;5143852;27;20096;-56
2022/12/30 09:48:57;;;;;;;8.77;4.32;;;26.70;85.50;;;;;;5147822;27;20050;-56
2022/12/30 09:51:30;;;;;;;8.23;4.57;;;26.70;85.40;;;;;;5147385;27;20110;-57
2022/12/30 09:54:15;;;;;;;7.25;4.60;;;26.70;85.50;;;;;;5147673;27;20070;-55
2022/12/30 09:56:42;;;;;;;;;;;26.70;85.60;;;;;;5148467;27;20032;-55
2022/12/30 09:59:25;;;;;;;8.23;4.47;;;26.70;85.60;;;;;;5147499;27;20114;-61
2022/12/30 10:02:16;;;;;;;7.28;4.18;;;26.70;85.70;;;;;;5146977;27;20023;-51
2022/12/30 10:04:43;;;;;;;7.00;4.20;;;26.70;86.00;;;;;;5147419;27;20034;-55
2022/12/30 10:07:14;;;;;;;8.90;4.57;;;26.70;85.90;;;;;;5147058;27;20223;-56
2022/12/30 10:09:54;;;;;;;8.07;4.38;;;26.70;85.80;;;;;;5147314;27;20030;-56
2022/12/30 10:12:45;;;;;;;7.07;4.53;;;26.60;85.80;;;;;;5147154;27;20034;-56
2022/12/30 10:15:38;;;;;;;10.32;4.70;;;26.60;85.90;;;;;;5147272;27;20031;-58
2022/12/30 10:18:35;;;;;;;9.60;4.68;;;26.60;86.00;;;;;;5146771;27;20043;-56
2022/12/30 10:21:21;;;;;;;8.27;4.45;;;26.70;85.90;;;;;;5147041;27;20019;-58
2022/12/30 10:24:14;;;;;;;7.43;4.65;;;26.60;85.80;;;;;;5146803;27;20023;-55
2022/12/30 10:26:49;;;;;;;8.73;4.95;;;26.60;85.80;;;;;;5147229;27;20307;-55
2022/12/30 10:29:21;;;;;;;11.82;4.97;;;26.60;85.90;;;;;;5146545;27;20069;-54
2022/12/30 10:31:51;;;;;;;8.40;4.60;;;26.60;85.80;;;;;;5147201;27;20353;-57
2022/12/30 10:34:30;;;;;;;8.02;4.28;;;26.60;85.70;;;;;;5146946;27;20088;-55
2022/12/30 10:37:03;;;;;;;9.18;4.65;;;26.60;85.70;;;;;;5147177;27;20023;-56
2022/12/30 10:39:36;;;;;;;7.72;4.75;;;26.60;85.70;;;;;;5146703;27;20180;-55
2022/12/30 10:42:32;;;;;;;7.00;4.68;;;26.70;86.30;;;;;;5146340;27;20026;-57
2022/12/30 10:45:05;;;;;;;8.30;4.45;;;26.60;85.60;;;;;;5146381;27;20095;-54
2022/12/30 10:47:59;;;;;;;8.18;5.32;;;26.60;85.50;;;;;;5146687;27;20031;-55
2022/12/30 10:50:36;;;;;;;8.82;5.03;;;26.60;85.40;;;;;;5146053;27;20027;-54
2022/12/30 10:53:07;;;;;;;9.93;4.70;;;26.60;85.50;;;;;;5146096;27;20066;-55
2022/12/30 10:55:40;;;;;;;11.43;4.68;;;26.60;85.40;;;;;;5146036;27;20063;-55
2022/12/30 10:58:25;;;;;;;8.52;4.75;;;26.60;85.60;;;;;;5137326;27;20051;-56
2022/12/30 11:00:53;;;;;;;12.15;4.97;;;26.60;85.50;;;;;;5123877;27;20016;-55
2022/12/30 11:03:31;;;;;;;13.35;5.28;;;26.60;85.50;;;;;;5116615;28;20068;-54
2022/12/30 11:06:14;;;;;;;9.38;5.22;;;26.60;85.50;;;;;;5116111;28;20027;-55
2022/12/30 11:08:40;;;;;;;;;;;26.60;85.50;;;;;;5116950;27;20033;-55
2022/12/30 11:11:09;;;;;;;11.57;5.43;;;26.60;85.50;;;;;;5129274;27;20069;-55
2022/12/30 11:16:26;;;;;;;9.93;5.13;;;26.60;85.60;;;;;;5122876;28;20122;-51
2022/12/30 11:18:54;;;;;;;12.38;4.65;;;26.60;85.70;;;;;;5122851;28;20034;-56
2022/12/30 11:21:30;;;;;;;8.93;4.93;;;26.60;85.60;;;;;;5118293;28;20061;-53
2022/12/30 11:23:59;;;;;;;10.75;5.07;;;26.60;85.90;;;;;;5114278;28;20031;-51
2022/12/30 11:26:30;;;;;;;14.88;5.22;;;26.60;85.70;;;;;;5115450;28;20208;-56
2022/12/30 11:28:58;;;;;;;10.82;5.18;;;26.60;85.60;;;;;;5106934;28;20031;-55
2022/12/30 11:31:45;;;;;;;10.48;4.90;;;26.60;85.60;;;;;;5103266;28;20030;-56
2022/12/30 11:34:20;;;;;;;16.25;5.65;;;26.60;85.70;;;;;;5111598;28;20095;-54
2022/12/30 11:36:47;;;;;;;11.60;5.40;;;26.60;85.70;;;;;;5106086;28;20024;-54
2022/12/30 11:39:23;;;;;;;11.57;5.50;;;26.60;85.60;;;;;;5105513;28;20095;-57
2022/12/30 11:41:52;;;;;;;16.27;5.45;;;26.60;86.20;;;;;;5111912;28;20026;-54
2022/12/30 11:44:28;;;;;;;11.20;5.40;;;26.60;85.70;;;;;;5108166;28;20039;-55
2022/12/30 11:47:04;;;;;;;11.07;5.00;;;26.60;85.60;;;;;;5109045;28;20027;-55
2022/12/30 11:49:46;;;;;;;12.32;5.18;;;26.70;85.60;;;;;;5118470;28;20036;-55
2022/12/30 11:52:25;;;;;;;8.68;4.97;;;26.70;85.80;;;;;;5109757;28;20050;-55
2022/12/30 11:54:58;;;;;;;7.35;4.72;;;26.70;85.70;;;;;;5107218;28;20324;-55
2022/12/30 11:57:42;;;;;;;11.77;5.10;;;26.70;85.90;;;;;;5111318;28;20024;-55
2022/12/30 12:00:17;;;;;;;11.60;5.60;;;26.70;85.60;;;;;;5118081;28;20077;-53
2022/12/30 12:02:50;;;;;;;12.00;6.35;;;26.70;85.60;;;;;;5106817;28;20023;-53
2022/12/30 12:05:30;;;;;;;9.98;5.53;;;26.70;85.40;;;;;;5119852;28;20023;-55
2022/12/30 12:08:13;;;;;;;12.10;5.53;;;26.80;85.30;;;;;;5116028;28;20106;-55
2022/12/30 12:10:41;;;;;;;12.13;5.47;;;26.80;85.60;;;;;;5112323;28;20035;-55
2022/12/30 12:13:35;;;;;;;12.70;5.05;;;26.80;85.40;;;;;;5113609;28;20032;-53
2022/12/30 12:16:04;;;;;;;11.05;5.50;;;26.80;85.20;;;;;;5113934;28;20047;-53
2022/12/30 12:18:44;;;;;;;10.82;5.82;;;26.80;85.30;;;;;;5128519;28;20034;-54
2022/12/30 12:21:21;;;;;;;13.13;5.78;;;26.80;85.50;;;;;;5123866;28;20090;-56
2022/12/30 12:24:13;;;;;;;13.15;5.97;;;26.80;85.60;;;;;;5124738;28;20016;-57
2022/12/30 12:26:44;;;;;;;15.13;6.07;;;26.80;85.80;;;;;;5128139;28;20039;-55
2022/12/30 12:29:13;;;;;;;14.30;6.03;;;26.80;85.70;;;;;;5128495;28;20034;-55
2022/12/30 12:31:58;;;;;;;13.32;5.30;;;26.80;85.80;;;;;;5135554;27;20035;-58
2022/12/30 12:34:43;;;;;;;13.50;4.70;;;26.90;85.80;;;;;;5145522;27;20023;-55
2022/12/30 12:37:25;;;;;;;15.60;5.57;;;26.90;85.90;;;;;;5148537;27;20316;-57
2022/12/30 12:40:10;;;;;;;16.23;6.40;;;26.90;85.70;;;;;;5139886;27;20322;-58
2022/12/30 12:43:18;;;;;;;24.83;8.02;;;26.90;85.60;;;;;;5108045;28;20066;-58
2022/12/30 12:46:12;;;;;;;17.98;7.30;;;26.90;85.60;;;;;;5025672;28;20017;-57
2022/12/30 12:48:56;;;;;;;18.35;7.35;;;27.00;85.70;;;;;;5029646;28;20460;-56
2022/12/30 12:51:54;;;;;;;15.93;7.05;;;27.00;85.90;;;;;;5100455;28;20324;-56
2022/12/30 12:54:54;;;;;;;20.95;6.82;;;27.00;85.70;;;;;;5127897;28;20043;-57
2022/12/30 12:57:24;;;;;;;16.50;6.70;;;27.00;85.90;;;;;;5127892;28;20315;-57
2022/12/30 13:00:07;;;;;;;15.90;6.45;;;27.00;85.90;;;;;;5127716;28;20096;-57
2022/12/30 13:02:55;;;;;;;18.70;6.57;;;27.00;85.80;;;;;;5125060;28;20024;-56
2022/12/30 13:05:44;;;;;;;20.88;6.60;;;27.00;85.70;;;;;;5116445;28;20061;-56
2022/12/30 13:08:24;;;;;;;19.05;7.63;;;27.00;86.00;;;;;;5107190;28;20081;-58
2022/12/30 13:10:59;;;;;;;18.30;7.75;;;27.10;86.10;;;;;;5111927;28;20027;-53
2022/12/30 13:13:36;;;;;;;16.20;7.95;;;27.10;86.10;;;;;;5118220;28;20031;-54
2022/12/30 13:16:32;;;;;;;16.98;7.82;;;27.10;86.10;;;;;;5108229;28;20035;-57
2022/12/30 13:19:02;;;;;;;18.45;7.85;;;27.10;86.10;;;;;;5121891;28;20028;-56
2022/12/30 13:21:32;;;;;;;14.00;8.07;;;27.10;86.30;;;;;;5127921;28;20258;-53
2022/12/30 13:24:05;;;;;;;16.52;7.60;;;27.10;86.30;;;;;;5109352;28;20027;-57
2022/12/30 13:26:34;;;;;;;13.30;7.38;;;27.10;86.30;;;;;;5127395;28;20038;-56
2022/12/30 13:29:03;;;;;;;14.50;7.57;;;27.20;86.40;;;;;;5120501;28;20332;-57
2022/12/30 13:31:45;;;;;;;17.55;8.20;;;27.20;86.30;;;;;;5118778;28;20030;-58
2022/12/30 13:34:19;;;;;;;17.08;7.47;;;27.20;86.10;;;;;;5127212;28;20031;-56
2022/12/30 13:37:24;;;;;;;17.45;7.50;;;27.20;86.30;;;;;;5126571;28;20295;-57
2022/12/30 13:40:10;;;;;;;12.63;7.63;;;27.20;86.20;;;;;;5090180;28;20236;-56
2022/12/30 13:42:42;;;;;;;16.52;7.97;;;27.30;86.80;;;;;;5118808;28;20035;-56
2022/12/30 13:45:25;;;;;;;15.25;7.97;;;27.30;86.30;;;;;;5116074;28;20057;-58
2022/12/30 13:48:04;;;;;;;16.00;8.00;;;27.30;86.30;;;;;;5126850;28;20103;-60
2022/12/30 13:50:33;;;;;;;16.90;7.90;;;27.30;86.20;;;;;;5119856;28;20196;-59
2022/12/30 13:53:01;;;;;;;20.42;8.40;;;27.30;86.40;;;;;;5111788;28;20062;-59
2022/12/30 13:55:38;;;;;;;16.83;7.93;;;27.30;86.10;;;;;;5119679;28;20024;-58
2022/12/30 13:58:42;;;;;;;14.10;7.90;;;27.30;86.10;;;;;;5107294;28;20107;-56
2022/12/30 14:01:20;;;;;;;15.77;7.93;;;27.30;86.10;;;;;;5042874;28;20096;-57